Time;durP1;ratioP1;P1;durP2;ratioP2;P2;SDS_P1;SDS_P2;PMS_P1;PMS_P2;Temp;Humidity;BMP_temperature;BMP_pressure;BME280_temperature;BME280_humidity;BME280_pressure;Samples;Min_cycle;Max_cycle;Signal;HPM_P1;HPM_P2
2024/01/26 05:52:35;;;;;;;7.40;4.75;;;7.50;99.90;;;;;;7444391;19;2961122;-74
2024/01/26 05:55:08;;;;;;;7.22;4.68;;;7.50;99.90;;;;;;7617342;19;20045;-77
2024/01/26 05:57:41;;;;;;;;;;;7.50;99.90;;;;;;7620885;19;20763;-75
2024/01/26 06:00:14;;;;;;;11.18;4.22;;;7.60;99.90;;;;;;7579664;19;19923;-75
2024/01/26 06:02:49;;;;;;;5.32;3.92;;;7.60;99.90;;;;;;7614105;19;20014;-75
2024/01/26 06:05:22;;;;;;;5.43;4.07;;;7.70;99.90;;;;;;7616766;19;21150;-75
2024/01/26 06:07:56;;;;;;;7.65;3.83;;;7.70;99.90;;;;;;7619581;19;20014;-74
2024/01/26 06:10:28;;;;;;;4.70;3.33;;;7.80;99.90;;;;;;7606822;19;20018;-74
2024/01/26 06:13:00;;;;;;;8.68;4.10;;;7.90;99.90;;;;;;7612963;19;20022;-73
2024/01/26 06:15:34;;;;;;;8.57;3.08;;;7.90;99.90;;;;;;7623734;19;20820;-75
2024/01/26 06:18:07;;;;;;;3.85;3.13;;;7.90;99.90;;;;;;7610585;19;20011;-75
2024/01/26 06:20:39;;;;;;;18.37;7.47;;;7.90;99.90;;;;;;7603210;19;20017;-75
2024/01/26 06:23:12;;;;;;;8.20;3.45;;;8.00;99.90;;;;;;7595237;19;20014;-75
2024/01/26 06:25:44;;;;;;;7.68;3.75;;;8.00;99.90;;;;;;7593610;19;20023;-74
2024/01/26 06:28:17;;;;;;;5.55;3.22;;;8.10;99.90;;;;;;7615222;19;20147;-75
2024/01/26 06:30:50;;;;;;;4.13;2.65;;;8.10;99.90;;;;;;7601187;19;20015;-75
2024/01/26 06:33:22;;;;;;;8.32;2.28;;;8.10;99.90;;;;;;7619221;19;20022;-75
2024/01/26 06:35:54;;;;;;;3.13;2.17;;;8.10;99.90;;;;;;7618407;19;20014;-75
2024/01/26 06:38:27;;;;;;;7.53;2.80;;;8.10;99.90;;;;;;7614387;19;20756;-75
2024/01/26 06:41:00;;;;;;;2.75;2.47;;;8.10;99.90;;;;;;7627126;19;20021;-75
2024/01/26 06:43:33;;;;;;;3.63;2.17;;;8.10;99.90;;;;;;7629117;19;20043;-76
2024/01/26 06:46:05;;;;;;;2.67;2.15;;;8.20;99.90;;;;;;7626391;19;20018;-76
2024/01/26 06:48:38;;;;;;;2.60;2.15;;;8.10;99.90;;;;;;7628945;19;20014;-74
2024/01/26 06:51:10;;;;;;;3.35;2.00;;;8.00;99.90;;;;;;7625349;19;20575;-74
2024/01/26 06:53:43;;;;;;;3.33;2.22;;;8.10;99.90;;;;;;7630997;19;20015;-75
2024/01/26 06:56:15;;;;;;;3.75;2.00;;;8.10;99.90;;;;;;7626838;19;20051;-75
2024/01/26 06:58:47;;;;;;;5.15;2.33;;;8.20;99.90;;;;;;7627740;19;20029;-75
2024/01/26 07:01:20;;;;;;;3.10;1.88;;;8.10;99.90;;;;;;7622495;19;20014;-75
2024/01/26 07:03:52;;;;;;;4.68;2.05;;;8.20;99.90;;;;;;7598133;19;20035;-74
2024/01/26 07:06:25;;;;;;;3.73;2.17;;;8.10;99.90;;;;;;7601558;19;20025;-74
2024/01/26 07:08:57;;;;;;;3.65;2.10;;;8.10;99.90;;;;;;7602213;19;20298;-74
2024/01/26 07:11:30;;;;;;;3.53;2.17;;;8.10;99.90;;;;;;7594142;19;20015;-76
2024/01/26 07:14:02;;;;;;;7.28;2.38;;;8.20;99.90;;;;;;7597803;19;20481;-75
2024/01/26 07:16:34;;;;;;;2.63;1.90;;;8.20;99.90;;;;;;7609184;19;21126;-75
2024/01/26 07:19:06;;;;;;;7.28;3.22;;;8.20;99.90;;;;;;7604357;19;20267;-75
2024/01/26 07:21:39;;;;;;;4.15;2.05;;;8.20;99.90;;;;;;7602649;19;20006;-75
2024/01/26 07:24:11;;;;;;;3.42;1.80;;;8.20;99.90;;;;;;7602512;19;20046;-75
2024/01/26 07:26:46;;;;;;;4.50;2.25;;;8.30;99.90;;;;;;7606782;19;20018;-75
2024/01/26 07:29:19;;;;;;;3.60;2.10;;;8.30;99.90;;;;;;7602813;19;20050;-75
2024/01/26 07:31:51;;;;;;;4.00;2.20;;;8.30;99.90;;;;;;7610602;19;20045;-74
2024/01/26 07:34:23;;;;;;;2.65;1.65;;;8.30;99.90;;;;;;7604564;19;20011;-74
2024/01/26 07:36:58;;;;;;;5.07;3.35;;;8.40;99.90;;;;;;7611018;19;20022;-76
2024/01/26 07:39:30;;;;;;;3.03;2.20;;;8.30;99.90;;;;;;7597466;19;21341;-75
2024/01/26 07:42:03;;;;;;;3.72;2.03;;;8.30;99.90;;;;;;7595730;19;20130;-75
2024/01/26 07:44:35;;;;;;;3.65;2.00;;;8.30;99.90;;;;;;7581816;19;20026;-74
2024/01/26 07:47:08;;;;;;;5.07;1.87;;;8.40;99.90;;;;;;7595252;19;20020;-74
2024/01/26 07:49:40;;;;;;;3.17;1.38;;;8.40;99.90;;;;;;7586823;19;20014;-74
2024/01/26 07:52:13;;;;;;;4.47;1.80;;;8.40;99.90;;;;;;7592508;19;20014;-74
2024/01/26 07:54:45;;;;;;;3.22;1.63;;;8.50;99.90;;;;;;7592399;19;20018;-76
2024/01/26 07:57:17;;;;;;;1.92;1.27;;;8.60;99.90;;;;;;7586454;19;20022;-76
2024/01/26 07:59:50;;;;;;;6.85;1.70;;;8.60;99.90;;;;;;7583495;19;20029;-74
2024/01/26 08:02:23;;;;;;;4.63;1.73;;;8.60;99.90;;;;;;7590549;19;20018;-77
2024/01/26 08:04:56;;;;;;;2.70;1.40;;;8.70;99.90;;;;;;7583912;19;21400;-75
2024/01/26 08:07:28;;;;;;;1.92;1.50;;;8.60;99.90;;;;;;7586921;19;20014;-76
2024/01/26 08:10:01;;;;;;;5.10;1.40;;;8.60;99.90;;;;;;7592963;19;20724;-75
2024/01/26 08:12:33;;;;;;;4.30;1.65;;;8.70;99.90;;;;;;7590156;19;20014;-74
2024/01/26 08:15:17;;;;;;;2.23;1.53;;;8.80;99.90;;;;;;7588469;19;20435;-74
2024/01/26 08:17:49;;;;;;;3.67;1.27;;;8.80;99.90;;;;;;7591489;19;20424;-74
2024/01/26 08:20:22;;;;;;;10.38;1.50;;;8.90;99.90;;;;;;7590229;19;20618;-74
2024/01/26 08:22:56;;;;;;;2.50;1.30;;;8.80;99.90;;;;;;7597234;19;20007;-75
2024/01/26 08:25:28;;;;;;;4.37;0.93;;;8.90;99.90;;;;;;7590971;19;20051;-74
2024/01/26 08:28:00;;;;;;;4.70;1.02;;;8.90;99.90;;;;;;7585598;19;20018;-74
2024/01/26 08:30:34;;;;;;;3.45;1.10;;;9.00;99.90;;;;;;7580776;19;20015;-74
2024/01/26 08:33:07;;;;;;;6.43;1.38;;;9.10;99.90;;;;;;7596801;19;20017;-74
2024/01/26 08:35:39;;;;;;;2.53;1.70;;;9.00;99.90;;;;;;7595469;19;20026;-74
2024/01/26 08:38:12;;;;;;;2.37;1.47;;;9.00;99.90;;;;;;7593481;19;20010;-74
2024/01/26 08:40:45;;;;;;;2.63;1.60;;;9.10;99.90;;;;;;7593214;19;20022;-74
2024/01/26 08:43:17;;;;;;;4.50;1.10;;;9.10;99.90;;;;;;7594820;19;20024;-74
2024/01/26 08:45:50;;;;;;;2.88;1.60;;;9.10;99.90;;;;;;7591489;19;20498;-75
2024/01/26 08:48:22;;;;;;;5.45;1.55;;;9.10;99.90;;;;;;7596317;19;20065;-74
2024/01/26 08:50:55;;;;;;;4.30;1.65;;;9.10;99.90;;;;;;7592175;19;20548;-74
2024/01/26 08:53:27;;;;;;;4.00;1.05;;;9.20;99.90;;;;;;7584361;19;20023;-75
2024/01/26 08:56:05;;;;;;;3.30;1.30;;;9.20;99.90;;;;;;7595540;19;20025;-74
2024/01/26 08:58:37;;;;;;;2.13;1.02;;;9.30;99.90;;;;;;7592764;19;20014;-75
2024/01/26 09:01:09;;;;;;;2.00;1.05;;;9.30;99.90;;;;;;7590871;19;20110;-75
2024/01/26 09:03:42;;;;;;;3.03;1.15;;;9.40;99.90;;;;;;7591815;19;20018;-75
2024/01/26 09:06:15;;;;;;;3.15;1.48;;;9.50;99.90;;;;;;7584330;19;20017;-74
2024/01/26 09:08:47;;;;;;;2.25;1.00;;;9.60;99.90;;;;;;7583340;19;20197;-74
2024/01/26 09:11:19;;;;;;;1.67;0.90;;;9.70;99.90;;;;;;7572926;19;24672;-74
2024/01/26 09:13:52;;;;;;;2.47;0.90;;;9.70;99.90;;;;;;7587581;19;20015;-74
2024/01/26 09:16:24;;;;;;;2.25;1.13;;;9.80;99.90;;;;;;7587582;19;20018;-75
2024/01/26 09:18:57;;;;;;;3.55;1.08;;;9.80;99.90;;;;;;7579446;19;20018;-74
2024/01/26 09:21:31;;;;;;;2.53;1.00;;;9.90;99.90;;;;;;7581756;19;20626;-74
2024/01/26 09:24:04;;;;;;;3.45;1.00;;;10.00;99.90;;;;;;7574843;19;20054;-75
2024/01/26 09:26:39;;;;;;;1.33;0.85;;;9.90;99.90;;;;;;7568439;19;20711;-74
2024/01/26 09:29:11;;;;;;;0.90;0.70;;;9.90;99.90;;;;;;7577655;19;20018;-75
2024/01/26 09:31:43;;;;;;;1.75;1.02;;;10.00;99.90;;;;;;7572315;19;20047;-74
2024/01/26 09:34:16;;;;;;;1.77;0.70;;;10.00;99.90;;;;;;7589337;19;21008;-74
2024/01/26 09:36:49;;;;;;;1.15;0.82;;;10.10;99.90;;;;;;7577262;19;20010;-74
2024/01/26 09:39:24;;;;;;;1.45;0.60;;;10.10;99.90;;;;;;7587026;19;20022;-74
2024/01/26 09:41:56;;;;;;;1.55;0.90;;;10.10;99.90;;;;;;7578802;19;20039;-75
2024/01/26 09:44:29;;;;;;;1.90;0.75;;;10.20;99.90;;;;;;7585124;19;20010;-74
2024/01/26 09:47:05;;;;;;;1.05;0.75;;;10.30;99.90;;;;;;7581479;19;20033;-74
2024/01/26 09:49:42;;;;;;;1.60;0.90;;;10.30;99.90;;;;;;7584050;19;20018;-74
2024/01/26 09:52:17;;;;;;;1.20;0.77;;;10.40;99.90;;;;;;7586723;19;20010;-75
2024/01/26 09:54:51;;;;;;;2.35;0.70;;;10.40;99.90;;;;;;7576740;19;20014;-74
2024/01/26 09:57:24;;;;;;;1.40;0.60;;;10.60;99.90;;;;;;7585054;19;21212;-74
2024/01/26 09:59:57;;;;;;;3.80;1.00;;;10.70;99.90;;;;;;7581479;19;20368;-75
2024/01/26 10:02:29;;;;;;;1.23;0.70;;;10.80;99.90;;;;;;7571805;19;20026;-75
2024/01/26 10:05:01;;;;;;;0.70;0.60;;;10.80;99.90;;;;;;7580328;19;20562;-76
2024/01/26 10:07:33;;;;;;;1.20;0.60;;;10.80;99.90;;;;;;7583241;19;21642;-76
2024/01/26 10:10:07;;;;;;;2.15;1.00;;;10.70;99.90;;;;;;7580522;19;20371;-75
2024/01/26 10:12:43;;;;;;;1.08;0.30;;;10.70;99.90;;;;;;7580298;19;20041;-75
2024/01/26 10:15:15;;;;;;;1.52;0.60;;;10.70;99.90;;;;;;7575187;19;20014;-76
2024/01/26 10:17:55;;;;;;;1.48;0.50;;;10.80;99.90;;;;;;7567411;19;20855;-75
2024/01/26 10:20:28;;;;;;;2.30;0.70;;;10.70;99.90;;;;;;7585450;19;20361;-75
2024/01/26 10:23:01;;;;;;;1.23;0.75;;;10.80;99.90;;;;;;7569616;19;20389;-75
2024/01/26 10:25:35;;;;;;;1.13;0.40;;;10.80;99.90;;;;;;7565797;19;20420;-77
2024/01/26 10:28:09;;;;;;;0.68;0.60;;;10.90;99.90;;;;;;7579695;19;21364;-77
2024/01/26 10:30:43;;;;;;;1.67;1.00;;;11.00;99.90;;;;;;7581172;19;20022;-77
2024/01/26 10:33:16;;;;;;;1.98;0.75;;;11.10;99.90;;;;;;7571509;19;20015;-76
2024/01/26 10:35:51;;;;;;;0.55;0.52;;;11.20;99.90;;;;;;7563641;19;20006;-77
2024/01/26 10:38:25;;;;;;;2.10;0.73;;;11.30;99.90;;;;;;7585260;19;20018;-78
2024/01/26 10:41:03;;;;;;;2.80;0.68;;;11.50;99.90;;;;;;7568310;19;20052;-75
2024/01/26 19:19:32;;;;;;;7.35;3.47;;;8.00;99.90;;;;;;7619421;19;20358;-71
2024/01/26 19:22:04;;;;;;;7.47;3.97;;;7.90;99.90;;;;;;7636526;19;20018;-74
2024/01/26 19:24:37;;;;;;;6.85;3.65;;;8.00;99.90;;;;;;7631555;19;20014;-72
2024/01/26 19:27:09;;;;;;;4.15;2.80;;;7.90;99.90;;;;;;7637271;19;20654;-74
2024/01/26 19:29:42;;;;;;;3.07;2.13;;;8.00;99.90;;;;;;7635835;19;20033;-74
2024/01/26 19:32:14;;;;;;;3.50;2.50;;;8.00;99.90;;;;;;7627401;19;20056;-73
2024/01/26 19:34:46;;;;;;;2.25;1.77;;;7.90;99.90;;;;;;7633499;19;20025;-70
2024/01/26 19:37:19;;;;;;;4.10;1.25;;;7.70;99.90;;;;;;7632442;19;20014;-74
2024/01/26 19:39:51;;;;;;;2.65;1.35;;;7.30;99.90;;;;;;7632508;19;20021;-73
2024/01/26 19:42:24;;;;;;;2.78;1.80;;;7.10;99.90;;;;;;7619256;19;20022;-72
2024/01/26 19:44:57;;;;;;;4.90;1.70;;;6.80;99.90;;;;;;7629337;19;20844;-73
2024/01/26 19:47:29;;;;;;;1.63;1.30;;;6.70;99.90;;;;;;7630607;19;20964;-71
2024/01/26 19:50:07;;;;;;;3.72;1.80;;;6.70;99.90;;;;;;7623169;19;20020;-72
2024/01/26 19:52:43;;;;;;;5.55;1.75;;;6.60;99.90;;;;;;7621866;19;20105;-71
2024/01/26 19:55:15;;;;;;;2.13;1.30;;;6.50;99.90;;;;;;7620114;19;20029;-72
2024/01/26 19:57:48;;;;;;;1.60;1.10;;;6.40;99.90;;;;;;7628271;19;20041;-72
2024/01/26 20:00:20;;;;;;;6.35;1.67;;;6.40;99.90;;;;;;7622550;19;20695;-74
2024/01/26 20:02:53;;;;;;;2.47;1.75;;;6.30;99.90;;;;;;7630728;19;20006;-74
2024/01/26 20:05:25;;;;;;;2.95;1.60;;;6.40;99.90;;;;;;7629385;19;20141;-72
2024/01/26 20:07:58;;;;;;;7.03;2.05;;;6.30;99.90;;;;;;7633374;19;20021;-73
2024/01/26 20:10:30;;;;;;;2.30;1.55;;;6.30;99.90;;;;;;7624658;19;20026;-73
2024/01/26 20:13:03;;;;;;;3.17;1.50;;;6.30;99.90;;;;;;7630633;19;20029;-70
2024/01/26 20:15:35;;;;;;;4.15;1.17;;;6.30;99.90;;;;;;7623796;19;20610;-72
2024/01/26 20:18:09;;;;;;;5.90;1.80;;;6.20;99.90;;;;;;7633464;19;20021;-73
2024/01/26 20:20:43;;;;;;;7.80;1.75;;;6.20;99.90;;;;;;7627055;19;20025;-73
2024/01/26 20:23:16;;;;;;;6.15;1.45;;;6.20;99.90;;;;;;7627053;19;20063;-74
2024/01/26 20:25:48;;;;;;;6.63;1.63;;;6.10;99.90;;;;;;7625659;19;20678;-71
2024/01/26 20:28:22;;;;;;;3.53;1.58;;;6.00;99.90;;;;;;7620918;19;21545;-72
2024/01/26 20:30:54;;;;;;;5.55;1.88;;;6.00;99.90;;;;;;7596155;19;20006;-72
2024/01/26 20:33:26;;;;;;;4.88;1.65;;;5.90;99.90;;;;;;7591603;19;20021;-71
2024/01/26 20:36:03;;;;;;;7.27;2.07;;;5.80;99.90;;;;;;7601009;19;20136;-72
2024/01/26 20:38:35;;;;;;;3.63;1.58;;;5.80;99.90;;;;;;7593593;19;20104;-74
2024/01/26 20:41:09;;;;;;;4.87;2.27;;;5.80;99.90;;;;;;7584170;19;20057;-72
